Time;durP1;ratioP1;P1;durP2;ratioP2;P2;SDS_P1;SDS_P2;PMS_P1;PMS_P2;Temp;Humidity;BMP_temperature;BMP_pressure;BME280_temperature;BME280_humidity;BME280_pressure;Samples;Min_cycle;Max_cycle;Signal;HPM_P1;HPM_P2
2023/06/02 00:01:14;;;;;;;;;;;17.60;68.80;;;;;;4984138;28;20016;-71
2023/06/02 00:03:40;;;;;;;;;;;17.50;68.70;;;;;;4985413;28;19975;-71
2023/06/02 00:06:11;;;;;;;;;;;17.50;68.80;;;;;;4989028;28;20652;-71
2023/06/02 00:08:40;;;;;;;;;;;17.50;68.60;;;;;;4988548;28;19961;-71
2023/06/02 00:11:06;;;;;;;;;;;17.50;68.80;;;;;;4987405;28;19913;-72
2023/06/02 00:13:31;;;;;;;;;;;17.40;68.70;;;;;;4988265;28;19918;-71
2023/06/02 00:15:57;;;;;;;;;;;17.50;68.70;;;;;;4988735;28;19913;-71
2023/06/02 00:18:23;;;;;;;;;;;17.40;69.40;;;;;;4988709;28;19910;-71
2023/06/02 00:20:49;;;;;;;;;;;17.40;68.90;;;;;;4988717;28;19943;-71
2023/06/02 00:23:15;;;;;;;;;;;17.30;68.90;;;;;;4973688;28;20295;-72
2023/06/02 00:25:40;;;;;;;;;;;17.30;68.80;;;;;;4967747;28;20473;-71
2023/06/02 00:28:06;;;;;;;;;;;17.30;68.90;;;;;;4969016;28;19922;-71
2023/06/02 00:30:33;;;;;;;;;;;17.30;68.90;;;;;;4970565;28;20260;-71
2023/06/02 00:32:58;;;;;;;;;;;17.30;68.90;;;;;;4988124;28;19937;-71
2023/06/02 00:35:25;;;;;;;;;;;17.20;68.90;;;;;;4988446;28;19918;-71
2023/06/02 00:37:51;;;;;;;;;;;17.20;68.90;;;;;;5010393;28;19991;-71
2023/06/02 00:40:17;;;;;;;;;;;17.20;68.90;;;;;;4988343;28;19914;-71
2023/06/02 00:42:42;;;;;;;;;;;17.20;69.00;;;;;;4988165;28;19917;-71
2023/06/02 00:45:08;;;;;;;;;;;17.20;69.00;;;;;;5073202;28;19973;-71
2023/06/02 00:47:33;;;;;;;;;;;17.10;69.00;;;;;;5089361;28;20529;-71
2023/06/02 00:49:59;;;;;;;;;;;17.10;68.90;;;;;;5090952;28;20400;-71
2023/06/02 00:52:25;;;;;;;;;;;17.10;68.90;;;;;;5048696;28;19914;-71
2023/06/02 00:54:50;;;;;;;;;;;17.00;68.90;;;;;;4988461;28;20003;-71
2023/06/02 00:57:16;;;;;;;;;;;17.00;68.80;;;;;;4987917;28;19914;-71
2023/06/02 00:59:43;;;;;;;;;;;17.00;69.00;;;;;;4987989;28;19946;-71
2023/06/02 01:02:10;;;;;;;;;;;17.00;68.90;;;;;;4987836;28;19910;-71
2023/06/02 01:04:36;;;;;;;;;;;17.00;68.90;;;;;;4986585;28;19950;-71
2023/06/02 01:07:02;;;;;;;;;;;16.90;68.90;;;;;;4987777;28;19914;-71
2023/06/02 01:09:28;;;;;;;;;;;17.00;69.10;;;;;;4986341;28;19914;-71
2023/06/02 01:11:54;;;;;;;;;;;16.90;68.90;;;;;;4986599;28;20020;-71
2023/06/02 01:14:20;;;;;;;;;;;16.90;69.00;;;;;;4986484;28;20029;-71
2023/06/02 01:16:49;;;;;;;;;;;16.90;69.00;;;;;;4986610;28;19918;-71
2023/06/02 01:19:21;;;;;;;;;;;16.90;68.90;;;;;;4984831;28;20417;-71
2023/06/02 01:22:01;;;;;;;;;;;16.80;68.90;;;;;;4984487;28;19920;-71
2023/06/02 01:24:29;;;;;;;;;;;16.80;68.90;;;;;;4968582;28;19961;-71
2023/06/02 01:26:55;;;;;;;;;;;16.80;69.00;;;;;;4966641;28;19914;-71
2023/06/02 01:29:20;;;;;;;;;;;16.70;69.00;;;;;;4968102;28;19920;-71
2023/06/02 01:31:48;;;;;;;;;;;16.70;68.90;;;;;;4971360;28;19921;-71
2023/06/02 01:34:19;;;;;;;;;;;16.70;69.00;;;;;;4987372;28;19960;-71
2023/06/02 01:36:46;;;;;;;;;;;16.70;69.00;;;;;;4987489;28;19917;-71
2023/06/02 01:39:12;;;;;;;;;;;16.60;68.90;;;;;;4987685;28;20644;-71
2023/06/02 01:41:41;;;;;;;;;;;16.60;68.90;;;;;;4987356;28;19957;-71
2023/06/02 01:44:07;;;;;;;;;;;16.60;68.90;;;;;;4987194;28;19914;-71
2023/06/02 01:46:32;;;;;;;;;;;16.60;68.80;;;;;;4987617;28;20290;-71
2023/06/02 01:48:58;;;;;;;;;;;16.60;69.00;;;;;;4987284;28;20549;-71
2023/06/02 01:51:24;;;;;;;;;;;16.60;69.00;;;;;;4987124;28;20621;-72
2023/06/02 01:53:50;;;;;;;;;;;16.50;69.00;;;;;;4967519;28;19914;-71
2023/06/02 01:56:16;;;;;;;;;;;16.50;69.00;;;;;;5059095;28;19914;-71
2023/06/02 01:58:41;;;;;;;;;;;16.50;69.00;;;;;;5063287;28;20374;-71
2023/06/02 02:01:07;;;;;;;;;;;16.50;68.90;;;;;;4987317;28;19975;-71
2023/06/02 02:03:32;;;;;;;;;;;16.40;68.90;;;;;;4986926;28;19914;-71
2023/06/02 02:05:58;;;;;;;;;;;16.40;68.90;;;;;;4986949;28;19922;-71
2023/06/02 02:08:24;;;;;;;;;;;16.40;68.80;;;;;;4986820;28;20475;-71
2023/06/02 02:10:50;;;;;;;;;;;16.40;69.00;;;;;;4986942;28;19949;-71
2023/06/02 02:13:15;;;;;;;;;;;16.40;69.00;;;;;;4986498;28;19914;-72
2023/06/02 02:15:41;;;;;;;;;;;16.30;69.00;;;;;;4986888;28;19967;-71
2023/06/02 02:18:06;;;;;;;;;;;16.30;68.80;;;;;;4985656;28;19956;-71
2023/06/02 02:20:32;;;;;;;;;;;16.30;68.90;;;;;;4987064;28;20365;-71
2023/06/02 02:22:58;;;;;;;;;;;16.30;68.90;;;;;;4973933;28;19922;-71
2023/06/02 02:25:23;;;;;;;;;;;16.20;68.80;;;;;;4967429;28;20004;-71
2023/06/02 02:27:49;;;;;;;;;;;16.20;68.90;;;;;;4965513;28;19915;-71
2023/06/02 02:30:15;;;;;;;;;;;16.20;69.00;;;;;;4967386;28;19910;-71
2023/06/02 02:32:43;;;;;;;;;;;16.20;68.80;;;;;;4977643;28;19967;-71
2023/06/02 02:35:09;;;;;;;;;;;16.20;68.90;;;;;;4986694;28;19921;-70
2023/06/02 02:37:36;;;;;;;;;;;16.20;68.90;;;;;;5032021;28;19917;-71
2023/06/02 02:40:02;;;;;;;;;;;16.10;68.80;;;;;;4985494;28;19918;-71
2023/06/02 02:42:28;;;;;;;;;;;16.10;69.00;;;;;;4986337;28;19910;-71
2023/06/02 02:44:54;;;;;;;;;;;16.10;68.90;;;;;;4985169;28;19918;-71
2023/06/02 02:47:20;;;;;;;;;;;16.10;68.90;;;;;;4985149;28;19913;-71
2023/06/02 02:49:46;;;;;;;;;;;16.10;69.00;;;;;;4986339;28;19910;-71
2023/06/02 02:52:12;;;;;;;;;;;16.10;69.00;;;;;;4979737;28;19983;-71
2023/06/02 02:54:38;;;;;;;;;;;16.10;69.20;;;;;;4967166;28;20012;-71
2023/06/02 02:57:04;;;;;;;;;;;16.00;68.80;;;;;;4966842;28;20029;-71
2023/06/02 02:59:31;;;;;;;;;;;16.00;68.80;;;;;;4967246;28;19941;-71
2023/06/02 03:01:57;;;;;;;;;;;16.00;68.90;;;;;;4966667;28;20367;-71
2023/06/02 03:04:22;;;;;;;;;;;16.00;68.90;;;;;;4970723;28;19944;-71
2023/06/02 03:06:49;;;;;;;;;;;15.90;69.00;;;;;;4984727;28;20282;-71
2023/06/02 03:09:17;;;;;;;;;;;15.90;69.00;;;;;;5035305;28;19970;-70
2023/06/02 03:11:43;;;;;;;;;;;15.90;69.00;;;;;;4984332;28;19917;-71
2023/06/02 03:14:09;;;;;;;;;;;15.90;68.90;;;;;;5027595;28;19978;-71
2023/06/02 03:16:35;;;;;;;;;;;15.90;69.00;;;;;;5084114;28;19919;-71
2023/06/02 03:19:02;;;;;;;;;;;15.80;68.90;;;;;;5088162;28;19999;-71
2023/06/02 03:21:31;;;;;;;;;;;15.90;68.90;;;;;;5080567;28;19919;-71
2023/06/02 03:23:58;;;;;;;;;;;15.80;68.90;;;;;;4989474;28;20389;-71
2023/06/02 03:26:26;;;;;;;;;;;15.80;69.00;;;;;;5000749;28;19914;-70
2023/06/02 03:28:52;;;;;;;;;;;15.80;69.00;;;;;;4985183;28;19914;-70
2023/06/02 03:31:18;;;;;;;;;;;15.80;69.00;;;;;;4985443;28;19918;-71
2023/06/02 03:33:43;;;;;;;;;;;15.80;69.00;;;;;;4985420;28;20001;-70
2023/06/02 03:36:09;;;;;;;;;;;15.80;69.10;;;;;;4986046;28;19967;-70
2023/06/02 03:38:35;;;;;;;;;;;15.70;69.00;;;;;;4986991;28;19914;-71
2023/06/02 03:41:00;;;;;;;;;;;15.70;69.00;;;;;;4989513;28;19924;-71
2023/06/02 03:43:26;;;;;;;;;;;15.70;69.00;;;;;;4988212;28;19913;-71
2023/06/02 03:45:51;;;;;;;;;;;15.70;69.00;;;;;;4988757;28;20642;-71
2023/06/02 03:48:17;;;;;;;;;;;15.70;69.00;;;;;;4989039;28;19914;-71
2023/06/02 03:50:42;;;;;;;;;;;15.70;69.00;;;;;;4987897;28;19914;-71
2023/06/02 03:53:08;;;;;;;;;;;15.60;69.00;;;;;;4973507;28;20042;-71
2023/06/02 03:55:33;;;;;;;;;;;15.60;69.00;;;;;;4969851;28;19922;-71
2023/06/02 03:57:59;;;;;;;;;;;15.60;69.10;;;;;;4967969;28;20751;-71
2023/06/02 04:00:24;;;;;;;;;;;15.60;69.00;;;;;;4968129;28;19915;-71
2023/06/02 04:02:50;;;;;;;;;;;15.60;69.10;;;;;;4969352;28;19914;-71
2023/06/02 04:05:16;;;;;;;;;;;15.60;69.00;;;;;;4981791;28;19921;-71
2023/06/02 04:07:41;;;;;;;;;;;15.60;69.10;;;;;;4988694;28;19914;-71
2023/06/02 04:10:07;;;;;;;;;;;15.60;69.10;;;;;;4988840;28;19953;-71
2023/06/02 04:12:33;;;;;;;;;;;15.60;69.10;;;;;;4988503;28;20504;-71
2023/06/02 04:14:59;;;;;;;;;;;15.50;69.00;;;;;;4988721;28;20673;-71
2023/06/02 04:17:25;;;;;;;;;;;15.50;69.20;;;;;;4987243;28;19924;-71
2023/06/02 04:19:52;;;;;;;;;;;15.50;69.10;;;;;;4988670;28;19976;-71
2023/06/02 04:22:18;;;;;;;;;;;15.50;69.10;;;;;;4981200;28;19918;-71
2023/06/02 04:24:45;;;;;;;;;;;15.50;69.10;;;;;;4969412;28;20271;-70
2023/06/02 04:27:10;;;;;;;;;;;15.50;69.10;;;;;;4969079;28;19910;-70
2023/06/02 04:29:37;;;;;;;;;;;15.50;69.20;;;;;;4969084;28;19914;-70
2023/06/02 04:32:03;;;;;;;;;;;15.50;69.10;;;;;;4974716;28;19996;-70
2023/06/02 04:34:30;;;;;;;;;;;15.50;69.10;;;;;;4988092;28;20005;-70
2023/06/02 04:36:55;;;;;;;;;;;15.40;69.10;;;;;;4986827;28;19914;-70
2023/06/02 04:39:22;;;;;;;;;;;15.40;69.30;;;;;;4987368;28;20469;-70
2023/06/02 04:41:49;;;;;;;;;;;15.40;69.10;;;;;;5005387;28;19926;-71
2023/06/02 04:44:16;;;;;;;;;;;15.40;69.20;;;;;;5090952;28;19917;-71
2023/06/02 04:46:42;;;;;;;;;;;15.40;69.20;;;;;;5089469;28;19912;-70
2023/06/02 04:49:09;;;;;;;;;;;15.40;69.10;;;;;;5090021;28;19912;-71
2023/06/02 04:51:35;;;;;;;;;;;15.40;69.10;;;;;;5083345;28;19916;-70
2023/06/02 04:54:00;;;;;;;;;;;15.40;69.00;;;;;;4987671;28;20012;-70
2023/06/02 04:56:26;;;;;;;;;;;15.40;69.10;;;;;;4987779;28;20017;-70
2023/06/02 04:58:52;;;;;;;;;;;15.40;69.20;;;;;;4987968;28;19956;-70
2023/06/02 05:01:17;;;;;;;;;;;15.40;69.20;;;;;;4988199;28;19980;-70
2023/06/02 05:03:43;;;;;;;;;;;15.40;69.20;;;;;;4987573;28;19960;-70
2023/06/02 05:06:08;;;;;;;;;;;15.40;69.30;;;;;;4986453;28;19953;-70
2023/06/02 05:08:34;;;;;;;;;;;15.30;69.20;;;;;;4987682;28;19914;-71
2023/06/02 05:10:59;;;;;;;;;;;15.40;69.20;;;;;;4987996;28;19916;-71
2023/06/02 05:13:27;;;;;;;;;;;15.40;69.20;;;;;;4987584;28;19917;-70
2023/06/02 05:15:53;;;;;;;;;;;15.30;69.20;;;;;;4987946;28;19922;-71
2023/06/02 05:18:18;;;;;;;;;;;15.30;69.20;;;;;;4987916;28;19921;-71
2023/06/02 05:20:44;;;;;;;;;;;15.30;69.20;;;;;;4987769;28;20275;-70
2023/06/02 05:23:09;;;;;;;;;;;15.30;69.30;;;;;;4973415;28;20425;-70
2023/06/02 05:25:35;;;;;;;;;;;15.30;69.20;;;;;;4968357;28;19910;-70
2023/06/02 05:28:00;;;;;;;;;;;15.30;69.20;;;;;;4971961;28;20017;-71
2023/06/02 05:30:26;;;;;;;;;;;15.30;69.20;;;;;;4986592;28;19997;-71
2023/06/02 05:32:51;;;;;;;;;;;15.30;69.20;;;;;;4980316;28;19918;-71
2023/06/02 05:35:17;;;;;;;;;;;15.30;69.20;;;;;;4987403;28;19967;-71
2023/06/02 05:37:43;;;;;;;;;;;15.30;69.30;;;;;;4986128;28;19910;-70
2023/06/02 05:40:09;;;;;;;;;;;15.30;69.20;;;;;;4987475;28;19910;-70
2023/06/02 05:42:35;;;;;;;;;;;15.30;69.20;;;;;;4987371;28;20355;-70
2023/06/02 05:45:02;;;;;;;;;;;15.30;69.20;;;;;;4987701;28;19921;-70
2023/06/02 05:47:30;;;;;;;;;;;15.30;69.30;;;;;;4987427;28;19914;-70
2023/06/02 05:49:55;;;;;;;;;;;15.40;69.30;;;;;;4987398;28;19910;-70
2023/06/02 05:52:21;;;;;;;;;;;15.30;69.20;;;;;;4979520;28;19987;-70
2023/06/02 05:54:46;;;;;;;;;;;15.40;69.30;;;;;;4967766;28;19914;-71
2023/06/02 05:57:12;;;;;;;;;;;15.40;69.20;;;;;;4967576;28;19915;-71
2023/06/02 05:59:39;;;;;;;;;;;15.40;69.20;;;;;;4967624;28;19960;-70
2023/06/02 06:02:05;;;;;;;;;;;15.30;69.90;;;;;;4967039;28;19953;-70
2023/06/02 06:04:31;;;;;;;;;;;15.40;69.20;;;;;;4973740;28;19914;-70
2023/06/02 06:06:56;;;;;;;;;;;15.40;69.20;;;;;;4986901;28;19933;-70
2023/06/02 06:09:22;;;;;;;;;;;15.40;69.80;;;;;;4987054;28;20969;-70
2023/06/02 06:11:47;;;;;;;;;;;15.40;69.20;;;;;;4986537;28;20587;-70
2023/06/02 06:14:13;;;;;;;;;;;15.40;69.20;;;;;;4986639;28;20636;-70
2023/06/02 06:16:38;;;;;;;;;;;15.40;69.20;;;;;;4986741;28;19913;-71
2023/06/02 06:19:04;;;;;;;;;;;15.40;69.20;;;;;;4985641;28;20565;-70
2023/06/02 06:21:29;;;;;;;;;;;15.40;69.30;;;;;;4986320;28;20329;-70
2023/06/02 06:23:55;;;;;;;;;;;15.40;69.30;;;;;;4967080;28;20264;-70
2023/06/02 06:26:20;;;;;;;;;;;15.40;69.20;;;;;;4966018;28;19920;-70
2023/06/02 06:28:46;;;;;;;;;;;15.40;69.20;;;;;;4965737;28;19914;-70
2023/06/02 06:31:11;;;;;;;;;;;15.40;69.20;;;;;;4965672;28;19911;-70
2023/06/02 06:33:37;;;;;;;;;;;15.40;69.20;;;;;;4985348;28;19970;-70
2023/06/02 06:36:02;;;;;;;;;;;15.40;69.20;;;;;;4986997;28;20491;-71
2023/06/02 06:38:28;;;;;;;;;;;15.50;69.20;;;;;;4986542;28;19914;-71
2023/06/02 06:40:53;;;;;;;;;;;15.50;69.10;;;;;;4986824;28;19921;-71
2023/06/02 06:43:19;;;;;;;;;;;15.50;69.20;;;;;;4984951;28;19979;-71
2023/06/02 06:45:44;;;;;;;;;;;15.50;69.10;;;;;;5036185;28;20437;-71
2023/06/02 06:48:10;;;;;;;;;;;15.50;69.10;;;;;;5088539;28;19959;-71
2023/06/02 06:50:36;;;;;;;;;;;15.50;69.10;;;;;;5088641;28;19927;-71
2023/06/02 06:53:03;;;;;;;;;;;15.50;69.10;;;;;;5020787;28;19918;-71
2023/06/02 06:55:29;;;;;;;;;;;15.50;69.10;;;;;;4986337;28;19920;-70
2023/06/02 06:57:55;;;;;;;;;;;15.50;69.10;;;;;;4984870;28;19914;-71
2023/06/02 07:00:20;;;;;;;;;;;15.60;69.10;;;;;;4986068;28;19914;-71
2023/06/02 07:02:48;;;;;;;;;;;15.50;69.00;;;;;;4986162;28;19914;-71
2023/06/02 07:05:14;;;;;;;;;;;15.60;69.10;;;;;;4986283;28;19916;-71
2023/06/02 07:07:39;;;;;;;;;;;15.60;69.00;;;;;;4986095;28;20274;-71
2023/06/02 07:10:05;;;;;;;;;;;15.60;69.10;;;;;;4986215;28;19914;-70
2023/06/02 07:12:31;;;;;;;;;;;15.60;69.00;;;;;;4985731;28;20620;-70
2023/06/02 07:14:56;;;;;;;;;;;15.70;69.00;;;;;;4989100;28;19914;-70
2023/06/02 07:17:22;;;;;;;;;;;15.70;69.00;;;;;;4989487;28;19921;-70
2023/06/02 07:19:47;;;;;;;;;;;15.60;69.00;;;;;;4989740;28;20032;-70
2023/06/02 07:22:13;;;;;;;;;;;15.70;69.00;;;;;;4982838;28;20627;-70
2023/06/02 07:24:39;;;;;;;;;;;15.70;69.00;;;;;;4970290;28;19936;-70
2023/06/02 07:27:05;;;;;;;;;;;15.70;69.00;;;;;;4970069;28;20385;-70
2023/06/02 07:29:30;;;;;;;;;;;15.70;69.00;;;;;;4985194;28;20351;-71
2023/06/02 07:31:56;;;;;;;;;;;15.70;69.00;;;;;;4979844;28;19917;-71
2023/06/02 07:34:21;;;;;;;;;;;15.80;68.90;;;;;;4989058;28;19949;-71
2023/06/02 07:36:48;;;;;;;;;;;15.80;69.00;;;;;;4987750;28;20733;-71
2023/06/02 07:39:14;;;;;;;;;;;15.80;68.90;;;;;;4989271;28;19918;-71
2023/06/02 07:41:39;;;;;;;;;;;15.80;68.80;;;;;;4989125;28;19914;-70
2023/06/02 07:44:05;;;;;;;;;;;15.80;68.80;;;;;;4989301;28;20438;-70
2023/06/02 07:46:31;;;;;;;;;;;15.90;68.80;;;;;;4989379;28;19918;-70
2023/06/02 07:48:57;;;;;;;;;;;15.90;68.70;;;;;;4989293;28;20668;-71
2023/06/02 07:51:23;;;;;;;;;;;15.90;68.60;;;;;;4989235;28;19914;-71
2023/06/02 07:53:49;;;;;;;;;;;16.00;68.60;;;;;;4968109;28;20426;-71
2023/06/02 07:56:14;;;;;;;;;;;16.00;68.60;;;;;;4969667;28;20022;-71
2023/06/02 07:58:40;;;;;;;;;;;16.10;68.60;;;;;;4969429;28;19914;-71
2023/06/02 08:01:06;;;;;;;;;;;16.10;68.40;;;;;;4968260;28;19922;-71
2023/06/02 08:03:31;;;;;;;;;;;16.10;68.40;;;;;;4969266;28;20416;-70
2023/06/02 08:05:56;;;;;;;;;;;16.10;68.30;;;;;;4987122;28;19922;-71
2023/06/02 08:08:22;;;;;;;;;;;16.20;68.30;;;;;;4988672;28;19914;-71
2023/06/02 08:10:47;;;;;;;;;;;16.20;68.20;;;;;;4988941;28;19976;-71
2023/06/02 08:13:13;;;;;;;;;;;16.30;68.20;;;;;;4988187;28;20017;-71
2023/06/02 08:15:39;;;;;;;;;;;16.30;68.20;;;;;;4987268;28;20374;-71
2023/06/02 08:18:11;;;;;;;;;;;16.30;68.10;;;;;;4988908;28;19917;-71
2023/06/02 08:20:36;;;;;;;;;;;16.30;68.10;;;;;;4988887;28;19914;-71
2023/06/02 08:23:02;;;;;;;;;;;16.40;68.00;;;;;;4973879;28;19929;-71
2023/06/02 08:25:28;;;;;;;;;;;16.40;67.90;;;;;;4968967;28;19941;-71
2023/06/02 08:27:53;;;;;;;;;;;16.40;67.90;;;;;;4968970;28;19914;-71
2023/06/02 08:30:20;;;;;;;;;;;16.50;67.80;;;;;;4968898;28;19922;-71
2023/06/02 08:32:48;;;;;;;;;;;16.50;67.60;;;;;;4980531;28;20427;-71
2023/06/02 08:35:13;;;;;;;;;;;16.60;67.50;;;;;;4988271;28;20036;-71
2023/06/02 08:37:40;;;;;;;;;;;16.60;67.40;;;;;;4970861;28;20004;-71
2023/06/02 08:40:07;;;;;;;;;;;16.70;67.30;;;;;;4991945;28;19910;-71
2023/06/02 08:42:32;;;;;;;;;;;16.80;67.20;;;;;;5086428;28;19912;-70
2023/06/02 08:44:58;;;;;;;;;;;16.80;67.00;;;;;;5091007;28;19968;-71
2023/06/02 08:47:25;;;;;;;;;;;16.90;67.00;;;;;;5090988;28;19916;-71
2023/06/02 08:49:50;;;;;;;;;;;16.90;66.80;;;;;;5091029;28;20340;-71
2023/06/02 08:52:20;;;;;;;;;;;17.00;66.80;;;;;;5054579;28;19918;-70
2023/06/02 08:54:46;;;;;;;;;;;17.00;66.70;;;;;;4988061;28;20481;-71
2023/06/02 08:57:16;;;;;;;;;;;17.00;66.60;;;;;;4986577;28;19972;-71
2023/06/02 08:59:44;;;;;;;;;;;17.10;66.60;;;;;;4988010;28;20298;-71
2023/06/02 09:02:10;;;;;;;;;;;17.10;66.30;;;;;;4987947;28;19910;-71
2023/06/02 09:04:36;;;;;;;;;;;17.20;66.40;;;;;;4988381;28;19909;-71
2023/06/02 09:07:28;;;;;;;;;;;17.20;66.30;;;;;;4986459;28;20282;-71
2023/06/02 09:09:55;;;;;;;;;;;17.10;66.60;;;;;;4990602;28;19921;-71
2023/06/02 09:12:21;;;;;;;;;;;17.10;66.60;;;;;;4987385;28;20032;-70
2023/06/02 09:14:47;;;;;;;;;;;17.20;66.60;;;;;;4987875;28;20024;-71
2023/06/02 09:17:29;;;;;;;;;;;17.20;66.70;;;;;;4987855;28;19961;-71
2023/06/02 09:19:55;;;;;;;;;;;17.20;66.70;;;;;;4987456;28;19925;-71
2023/06/02 09:22:21;;;;;;;;;;;17.20;66.60;;;;;;4979741;28;19918;-71
2023/06/02 09:24:47;;;;;;;;;;;17.20;66.80;;;;;;4966890;28;20636;-71
2023/06/02 09:27:13;;;;;;;;;;;17.20;66.60;;;;;;4967965;28;19921;-71
2023/06/02 09:29:39;;;;;;;;;;;17.30;66.50;;;;;;4968059;28;19914;-71
2023/06/02 09:32:10;;;;;;;;;;;17.40;66.30;;;;;;4981481;28;19918;-71
2023/06/02 09:34:36;;;;;;;;;;;17.50;66.20;;;;;;4985870;28;20565;-71
2023/06/02 09:37:12;;;;;;;;;;;17.50;66.10;;;;;;4986361;28;19950;-71
2023/06/02 09:39:38;;;;;;;;;;;17.40;66.20;;;;;;4987560;28;19960;-71
2023/06/02 09:42:05;;;;;;;;;;;17.50;66.20;;;;;;4985601;28;19941;-71
2023/06/02 09:44:31;;;;;;;;;;;17.70;66.10;;;;;;4987536;28;20018;-71
2023/06/02 09:46:57;;;;;;;;;;;17.70;65.90;;;;;;4987619;28;20343;-71
2023/06/02 09:49:22;;;;;;;;;;;17.80;65.70;;;;;;4987499;28;19913;-71
2023/06/02 09:51:48;;;;;;;;;;;17.80;65.60;;;;;;4983756;28;19918;-71
2023/06/02 09:54:13;;;;;;;;;;;17.90;65.70;;;;;;4967926;28;19917;-71
2023/06/02 09:56:39;;;;;;;;;;;18.00;65.60;;;;;;4967644;28;19991;-71
2023/06/02 09:59:05;;;;;;;;;;;17.90;65.70;;;;;;4967736;28;20008;-71
2023/06/02 10:01:32;;;;;;;;;;;17.90;65.90;;;;;;4968008;28;20283;-71
2023/06/02 10:03:58;;;;;;;;;;;17.90;66.00;;;;;;4968022;28;19922;-71
2023/06/02 10:06:50;;;;;;;;;;;17.90;66.10;;;;;;4987003;28;19914;-71
2023/06/02 10:09:45;;;;;;;;;;;18.00;66.10;;;;;;4983744;28;20374;-71
2023/06/02 10:12:21;;;;;;;;;;;18.00;66.00;;;;;;4977366;28;19917;-71
2023/06/02 10:14:50;;;;;;;;;;;18.00;66.10;;;;;;4986887;28;20004;-71
2023/06/02 10:17:21;;;;;;;;;;;18.10;65.90;;;;;;4986688;28;19914;-71
2023/06/02 10:20:05;;;;;;;;;;;18.10;65.80;;;;;;4985469;28;19918;-71
2023/06/02 10:22:45;;;;;;;;;;;18.30;65.80;;;;;;4986381;28;19922;-71
2023/06/02 10:25:22;;;;;;;;;;;18.30;65.90;;;;;;4986791;28;20014;-71
2023/06/02 10:27:49;;;;;;;;;;;18.20;66.00;;;;;;4986304;28;19917;-71
2023/06/02 10:30:18;;;;;;;;;;;18.30;65.80;;;;;;4986617;28;20396;-71
2023/06/02 10:32:45;;;;;;;;;;;18.40;65.80;;;;;;4978426;28;20366;-71
2023/06/02 10:35:11;;;;;;;;;;;18.40;65.90;;;;;;4986377;28;20247;-71
2023/06/02 10:37:37;;;;;;;;;;;18.50;65.90;;;;;;4986409;28;19914;-70
2023/06/02 10:40:03;;;;;;;;;;;18.60;65.70;;;;;;4986742;28;20000;-71
2023/06/02 10:42:31;;;;;;;;;;;18.70;65.70;;;;;;4986356;28;19967;-71
2023/06/02 10:45:15;;;;;;;;;;;18.80;65.60;;;;;;4986721;28;19931;-71
2023/06/02 10:47:41;;;;;;;;;;;18.90;65.60;;;;;;5005941;28;20349;-71
2023/06/02 10:50:09;;;;;;;;;;;19.00;65.60;;;;;;5088574;28;19962;-71
2023/06/02 10:52:54;;;;;;;;;;;19.00;65.50;;;;;;5040006;28;19918;-71
2023/06/02 10:55:20;;;;;;;;;;;19.10;65.50;;;;;;4981045;28;19917;-71
2023/06/02 10:57:49;;;;;;;;;;;19.10;65.60;;;;;;4989105;28;19973;-71
2023/06/02 11:00:43;;;;;;;;;;;19.20;65.70;;;;;;5008219;28;19913;-71
2023/06/02 11:03:08;;;;;;;;;;;19.30;65.80;;;;;;4990819;28;20000;-70
2023/06/02 11:05:34;;;;;;;;;;;19.50;65.40;;;;;;4986285;28;20000;-71
2023/06/02 11:08:12;;;;;;;;;;;19.60;65.60;;;;;;4986253;28;20279;-71
2023/06/02 11:10:42;;;;;;;;;;;19.70;65.20;;;;;;4983946;28;19929;-71
2023/06/02 11:13:08;;;;;;;;;;;19.70;64.70;;;;;;4982900;28;20270;-71
2023/06/02 11:15:34;;;;;;;;;;;19.80;64.90;;;;;;4985231;28;19918;-71
2023/06/02 11:18:03;;;;;;;;;;;19.80;64.90;;;;;;4985891;28;19914;-71
2023/06/02 11:20:33;;;;;;;;;;;19.80;65.00;;;;;;4984570;28;19914;-71
2023/06/02 11:23:03;;;;;;;;;;;19.90;64.80;;;;;;4972971;28;20442;-71
2023/06/02 11:25:28;;;;;;;;;;;20.00;65.90;;;;;;4966511;28;19941;-71
2023/06/02 11:27:54;;;;;;;;;;;20.00;64.90;;;;;;4983996;28;19941;-72
2023/06/02 11:30:19;;;;;;;;;;;19.90;65.20;;;;;;4985685;28;19914;-71
2023/06/02 11:32:47;;;;;;;;;;;19.90;65.30;;;;;;4985277;28;19953;-71
2023/06/02 11:35:13;;;;;;;;;;;20.10;65.40;;;;;;4985845;28;19917;-71
2023/06/02 11:37:40;;;;;;;;;;;20.20;65.40;;;;;;4985633;28;19966;-71
2023/06/02 11:40:08;;;;;;;;;;;20.20;65.00;;;;;;4985704;28;19914;-71
2023/06/02 11:42:38;;;;;;;;;;;20.30;65.20;;;;;;4984091;28;19914;-71
2023/06/02 11:45:04;;;;;;;;;;;20.20;65.20;;;;;;4985444;28;19914;-71
2023/06/02 11:47:30;;;;;;;;;;;20.20;65.00;;;;;;4984418;28;19914;-71
2023/06/02 11:49:55;;;;;;;;;;;20.40;65.10;;;;;;4985859;28;19933;-71
2023/06/02 11:52:21;;;;;;;;;;;20.50;65.10;;;;;;4983353;28;20004;-72
2023/06/02 11:54:50;;;;;;;;;;;20.50;64.80;;;;;;4985168;28;19982;-72
2023/06/02 11:57:31;;;;;;;;;;;20.60;65.60;;;;;;4985336;28;19944;-71
2023/06/02 12:00:09;;;;;;;;;;;20.70;64.90;;;;;;4987037;28;20004;-72
2023/06/02 12:02:38;;;;;;;;;;;20.80;64.50;;;;;;4988687;28;19913;-72
2023/06/02 12:05:08;;;;;;;;;;;20.80;64.60;;;;;;4987207;28;19914;-71
2023/06/02 12:07:34;;;;;;;;;;;20.90;64.60;;;;;;4986817;28;19918;-71
2023/06/02 12:09:59;;;;;;;;;;;20.90;64.60;;;;;;4988321;28;19924;-71
2023/06/02 12:12:25;;;;;;;;;;;21.10;64.60;;;;;;4986536;28;20321;-71
2023/06/02 12:14:50;;;;;;;;;;;21.10;65.00;;;;;;4988620;28;19913;-71
2023/06/02 12:17:16;;;;;;;;;;;21.00;64.30;;;;;;5007369;28;20012;-72
2023/06/02 12:19:41;;;;;;;;;;;21.10;64.70;;;;;;5006526;28;20355;-71
2023/06/02 12:22:11;;;;;;;;;;;21.10;64.80;;;;;;4979747;28;20008;-71
2023/06/02 12:24:39;;;;;;;;;;;21.10;64.80;;;;;;5001783;28;19919;-71
2023/06/02 12:27:08;;;;;;;;;;;21.20;64.60;;;;;;5070334;28;20459;-72
2023/06/02 12:29:34;;;;;;;;;;;21.20;64.40;;;;;;5029987;28;19916;-72
2023/06/02 12:32:01;;;;;;;;;;;21.20;64.80;;;;;;5018041;28;19965;-72
2023/06/02 12:34:27;;;;;;;;;;;21.20;64.20;;;;;;4987998;28;19921;-72
2023/06/02 12:36:53;;;;;;;;;;;21.30;64.50;;;;;;4988255;28;19914;-72
2023/06/02 12:39:18;;;;;;;;;;;21.20;64.80;;;;;;4986679;28;19963;-72
2023/06/02 12:41:44;;;;;;;;;;;21.30;65.00;;;;;;4987143;28;19914;-72
2023/06/02 12:44:09;;;;;;;;;;;21.30;65.00;;;;;;4987979;28;19910;-72
2023/06/02 12:46:35;;;;;;;;;;;21.30;65.00;;;;;;4987358;28;19917;-72
2023/06/02 12:49:00;;;;;;;;;;;21.30;64.50;;;;;;4987350;28;20379;-72
2023/06/02 12:51:26;;;;;;;;;;;21.30;65.30;;;;;;4985783;28;20337;-72
2023/06/02 12:53:53;;;;;;;;;;;21.40;65.50;;;;;;4967443;28;20260;-72
2023/06/02 12:56:18;;;;;;;;;;;21.50;65.00;;;;;;4967827;28;20013;-72
2023/06/02 12:58:44;;;;;;;;;;;21.50;65.10;;;;;;4967703;28;20343;-72
2023/06/02 13:01:10;;;;;;;;;;;21.60;64.30;;;;;;4966369;28;19921;-72
2023/06/02 13:03:36;;;;;;;;;;;21.60;64.40;;;;;;4967507;28;19914;-72
2023/06/02 13:06:02;;;;;;;;;;;21.60;64.10;;;;;;4985828;28;20382;-72
2023/06/02 13:08:28;;;;;;;;;;;21.70;64.20;;;;;;4986882;28;19914;-72
2023/06/02 13:10:57;;;;;;;;;;;21.70;64.60;;;;;;4984923;28;20654;-72
2023/06/02 13:13:23;;;;;;;;;;;21.70;64.20;;;;;;4986792;28;20028;-72
2023/06/02 13:15:48;;;;;;;;;;;21.70;64.50;;;;;;4985678;28;20583;-72
2023/06/02 13:18:14;;;;;;;;;;;21.80;64.70;;;;;;4987055;28;20416;-72
2023/06/02 13:20:40;;;;;;;;;;;21.80;64.00;;;;;;4986942;28;19959;-72
2023/06/02 13:23:05;;;;;;;;;;;21.90;64.50;;;;;;4973120;28;19918;-72
2023/06/02 13:25:32;;;;;;;;;;;22.00;64.40;;;;;;4967507;28;19941;-72
2023/06/02 13:27:58;;;;;;;;;;;22.00;63.70;;;;;;4967263;28;20787;-72
2023/06/02 13:30:24;;;;;;;;;;;22.00;64.10;;;;;;4966069;28;20025;-72
2023/06/02 13:32:51;;;;;;;;;;;22.00;64.20;;;;;;4996862;28;20297;-72
2023/06/02 13:35:18;;;;;;;;;;;22.00;64.30;;;;;;4985979;28;19990;-72
2023/06/02 13:37:44;;;;;;;;;;;22.00;64.20;;;;;;4984530;28;20001;-72
2023/06/02 13:40:10;;;;;;;;;;;21.90;64.30;;;;;;4984882;28;20005;-72
2023/06/02 13:42:35;;;;;;;;;;;22.00;63.90;;;;;;4986800;28;20000;-72
2023/06/02 13:45:01;;;;;;;;;;;22.00;64.50;;;;;;4986696;28;19921;-72
2023/06/02 13:47:26;;;;;;;;;;;22.10;63.80;;;;;;4986252;28;19921;-72
2023/06/02 13:49:52;;;;;;;;;;;22.20;64.40;;;;;;4985975;28;20302;-72
2023/06/02 13:52:17;;;;;;;;;;;22.40;63.80;;;;;;4980283;28;19961;-72
2023/06/02 13:54:44;;;;;;;;;;;22.50;63.40;;;;;;4968113;28;19952;-72
2023/06/02 13:57:09;;;;;;;;;;;22.60;63.50;;;;;;4967777;28;19950;-72
2023/06/02 13:59:35;;;;;;;;;;;22.60;63.30;;;;;;4967778;28;20359;-72
2023/06/02 14:02:01;;;;;;;;;;;22.60;63.40;;;;;;4966264;28;20387;-72
2023/06/02 14:04:26;;;;;;;;;;;22.50;63.60;;;;;;4971763;28;20015;-73
2023/06/02 14:06:53;;;;;;;;;;;22.50;63.70;;;;;;4985967;28;19933;-72
2023/06/02 14:09:18;;;;;;;;;;;22.50;63.70;;;;;;4985733;28;19910;-72
2023/06/02 14:11:44;;;;;;;;;;;22.50;63.90;;;;;;4985587;28;20279;-73
2023/06/02 14:14:10;;;;;;;;;;;22.60;63.60;;;;;;4986683;28;19920;-72